Time;durP1;ratioP1;P1;durP2;ratioP2;P2;SDS_P1;SDS_P2;PMS_P1;PMS_P2;Temp;Humidity;BMP_temperature;BMP_pressure;BME280_temperature;BME280_humidity;BME280_pressure;Samples;Min_cycle;Max_cycle;Signal;HPM_P1;HPM_P2
2021/01/07 00:01:50;;;;;;;17.80;11.13;;;6.60;99.90;;;;;;5053900;28;20431;-76
2021/01/07 00:04:16;;;;;;;16.85;9.27;;;6.60;99.90;;;;;;5053837;28;20431;-76
2021/01/07 00:06:42;;;;;;;14.57;8.73;;;6.60;99.90;;;;;;5053632;28;20033;-76
2021/01/07 00:09:08;;;;;;;17.77;9.95;;;6.60;99.90;;;;;;5053578;28;20025;-76
2021/01/07 00:11:34;;;;;;;26.80;14.18;;;6.70;99.90;;;;;;5053551;28;20032;-76
2021/01/07 00:13:59;;;;;;;22.15;14.00;;;6.60;99.90;;;;;;5053428;28;20017;-76
2021/01/07 00:16:25;;;;;;;20.92;11.30;;;6.60;99.90;;;;;;5053428;28;20495;-76
2021/01/07 00:18:51;;;;;;;10.35;7.18;;;6.70;99.90;;;;;;5053336;28;20078;-76
2021/01/07 00:21:17;;;;;;;15.98;9.50;;;6.60;99.90;;;;;;5053228;28;20024;-76
2021/01/07 00:23:43;;;;;;;12.85;6.88;;;6.60;99.90;;;;;;5053289;28;20428;-76
2021/01/07 00:26:09;;;;;;;11.98;7.45;;;6.60;99.90;;;;;;5053141;28;20407;-76
2021/01/07 00:28:34;;;;;;;13.85;8.52;;;6.60;99.90;;;;;;5053363;28;20072;-76
2021/01/07 00:31:00;;;;;;;15.10;9.43;;;6.60;99.90;;;;;;5053066;28;20053;-76
2021/01/07 00:33:26;;;;;;;15.05;8.80;;;6.60;99.90;;;;;;5053192;28;20375;-76
2021/01/07 00:35:52;;;;;;;19.27;8.05;;;6.60;99.90;;;;;;5053338;28;20094;-76
2021/01/07 00:38:18;;;;;;;15.40;8.55;;;6.60;99.90;;;;;;5053247;28;20809;-75
2021/01/07 00:40:44;;;;;;;13.70;8.75;;;6.60;99.90;;;;;;5053094;28;20372;-76
2021/01/07 00:43:10;;;;;;;11.65;6.95;;;6.60;99.90;;;;;;5052785;28;20077;-76
2021/01/07 00:45:36;;;;;;;12.63;7.03;;;6.60;99.90;;;;;;5052841;28;20104;-76
2021/01/07 00:48:03;;;;;;;16.90;8.80;;;6.60;99.90;;;;;;5053015;28;20036;-76
2021/01/07 00:50:29;;;;;;;14.02;7.55;;;6.60;99.90;;;;;;5052875;28;20021;-76
2021/01/07 00:52:55;;;;;;;14.75;8.10;;;6.60;99.90;;;;;;5052758;28;20032;-76
2021/01/07 00:55:21;;;;;;;13.93;7.43;;;6.60;99.90;;;;;;5052880;28;20073;-76
2021/01/07 00:57:47;;;;;;;8.65;5.30;;;6.60;99.90;;;;;;5067810;28;20373;-76
2021/01/07 01:00:16;;;;;;;6.78;4.10;;;6.60;99.90;;;;;;5052703;28;20033;-76
2021/01/07 01:02:42;;;;;;;7.95;4.90;;;6.60;99.90;;;;;;5052780;28;20021;-76
2021/01/07 01:05:08;;;;;;;7.97;5.53;;;6.60;99.90;;;;;;5052598;28;20024;-76
2021/01/07 01:07:35;;;;;;;9.55;5.72;;;6.60;99.90;;;;;;5067833;28;20070;-76
2021/01/07 01:10:01;;;;;;;9.68;5.80;;;6.60;99.90;;;;;;5052494;28;20024;-76
2021/01/07 01:12:27;;;;;;;12.90;7.05;;;6.50;99.90;;;;;;5052451;28;20024;-76
2021/01/07 01:14:53;;;;;;;11.27;6.55;;;6.50;99.90;;;;;;5052596;28;20017;-76
2021/01/07 01:17:18;;;;;;;15.30;8.88;;;6.50;99.90;;;;;;5052382;28;20111;-76
2021/01/07 01:19:44;;;;;;;18.50;9.70;;;6.50;99.90;;;;;;5052505;28;20025;-76
2021/01/07 01:22:10;;;;;;;17.27;11.38;;;6.50;99.90;;;;;;5052178;28;20033;-76
2021/01/07 01:24:36;;;;;;;19.95;12.65;;;6.50;99.90;;;;;;5034359;28;20028;-76
2021/01/07 01:27:03;;;;;;;31.60;19.20;;;6.40;99.90;;;;;;5052096;28;20469;-76
2021/01/07 01:29:29;;;;;;;68.78;37.13;;;6.40;99.90;;;;;;5051913;28;20508;-76
2021/01/07 01:31:55;;;;;;;88.00;45.85;;;6.40;99.90;;;;;;5051964;28;20035;-76
2021/01/07 01:34:24;;;;;;;71.13;38.97;;;6.40;99.90;;;;;;5052086;28;20036;-76
2021/01/07 01:36:53;;;;;;;41.45;23.80;;;6.40;99.90;;;;;;5052151;28;20025;-76
2021/01/07 01:39:19;;;;;;;36.42;20.25;;;6.40;99.90;;;;;;5051907;28;20032;-76
2021/01/07 01:41:48;;;;;;;33.20;19.17;;;6.40;99.90;;;;;;5051961;28;20034;-76
2021/01/07 01:44:16;;;;;;;52.63;29.95;;;6.30;99.90;;;;;;5052002;28;20029;-76
2021/01/07 01:46:42;;;;;;;41.85;21.70;;;6.30;99.90;;;;;;5051760;28;20025;-76
2021/01/07 01:49:09;;;;;;;30.85;13.65;;;6.30;99.90;;;;;;5051815;28;20048;-76
2021/01/07 01:51:36;;;;;;;21.20;12.10;;;6.30;99.90;;;;;;5051824;28;20035;-76
2021/01/07 01:54:02;;;;;;;17.30;9.48;;;6.30;99.90;;;;;;5051044;28;20025;-76
2021/01/07 01:56:28;;;;;;;22.08;11.48;;;6.30;99.90;;;;;;5051679;28;20029;-76
2021/01/07 01:58:55;;;;;;;17.58;8.05;;;6.20;99.90;;;;;;5051687;28;20029;-76
2021/01/07 02:01:21;;;;;;;14.32;7.30;;;6.20;99.90;;;;;;5051645;28;20027;-76
2021/01/07 02:03:48;;;;;;;14.77;7.45;;;6.20;99.90;;;;;;5052011;28;20104;-76
2021/01/07 02:06:17;;;;;;;12.88;7.30;;;6.20;99.90;;;;;;5051340;28;20033;-76
2021/01/07 02:08:45;;;;;;;13.90;9.15;;;6.10;99.90;;;;;;5051414;28;20045;-76
2021/01/07 02:11:12;;;;;;;16.35;9.50;;;6.20;99.90;;;;;;5051483;28;20033;-76
2021/01/07 02:13:39;;;;;;;18.90;10.95;;;6.10;99.90;;;;;;5051452;28;20051;-76
2021/01/07 02:16:06;;;;;;;25.45;12.82;;;6.10;99.90;;;;;;5051496;28;20036;-76
2021/01/07 02:18:32;;;;;;;18.92;11.57;;;6.10;99.90;;;;;;5051529;28;20036;-76
2021/01/07 02:21:03;;;;;;;32.42;16.35;;;6.10;99.90;;;;;;5051540;28;20044;-76
2021/01/07 02:23:30;;;;;;;40.38;22.20;;;6.10;99.90;;;;;;5051499;28;20079;-76
2021/01/07 02:25:56;;;;;;;41.58;21.25;;;6.20;99.90;;;;;;5051377;28;20040;-76
2021/01/07 02:28:24;;;;;;;47.60;25.38;;;6.20;99.90;;;;;;5033247;28;20024;-76
2021/01/07 02:30:49;;;;;;;56.85;31.55;;;6.20;99.90;;;;;;5032982;28;20053;-76
2021/01/07 02:33:15;;;;;;;38.42;21.63;;;6.20;99.90;;;;;;5051313;28;20381;-76
2021/01/07 02:35:41;;;;;;;38.13;21.92;;;6.20;99.90;;;;;;5051307;28;20434;-76
2021/01/07 02:38:07;;;;;;;35.55;20.75;;;6.20;99.90;;;;;;5051254;28;20103;-76
2021/01/07 02:40:34;;;;;;;30.83;17.90;;;6.20;99.90;;;;;;5051098;28;20029;-76
2021/01/07 02:43:03;;;;;;;32.85;17.30;;;6.20;99.90;;;;;;5051193;28;20415;-76
2021/01/07 02:45:29;;;;;;;23.98;14.00;;;6.10;99.90;;;;;;5050973;28;20029;-76
2021/01/07 02:47:55;;;;;;;33.65;18.45;;;6.10;99.90;;;;;;5033495;28;20115;-76
2021/01/07 02:50:21;;;;;;;22.58;12.95;;;6.00;99.90;;;;;;5051206;28;20104;-76
2021/01/07 02:52:47;;;;;;;19.75;11.40;;;6.00;99.90;;;;;;5051360;28;20380;-76
2021/01/07 02:55:13;;;;;;;23.38;15.30;;;6.10;99.90;;;;;;5050988;28;20032;-76
2021/01/07 02:57:39;;;;;;;56.53;30.00;;;6.10;99.90;;;;;;5051053;28;20031;-76
2021/01/07 03:00:06;;;;;;;37.40;20.95;;;6.10;99.90;;;;;;5051128;28;20029;-76
2021/01/07 03:02:32;;;;;;;36.60;20.63;;;6.10;99.90;;;;;;5051076;28;20021;-76
2021/01/07 03:04:57;;;;;;;24.25;15.82;;;6.10;99.90;;;;;;5052863;28;20032;-76
2021/01/07 03:07:23;;;;;;;17.30;11.90;;;6.00;99.90;;;;;;5036850;28;20715;-76
2021/01/07 03:09:49;;;;;;;18.98;13.48;;;6.00;99.90;;;;;;5036938;28;20123;-76
2021/01/07 03:12:19;;;;;;;19.50;13.60;;;6.00;99.90;;;;;;5054876;28;20369;-76
2021/01/07 03:14:46;;;;;;;29.73;16.23;;;5.90;99.90;;;;;;5055122;28;20056;-76
2021/01/07 03:17:12;;;;;;;35.65;19.02;;;5.80;99.90;;;;;;5054946;28;20329;-76
2021/01/07 03:19:38;;;;;;;36.95;18.23;;;5.90;99.90;;;;;;5054952;28;20056;-76
2021/01/07 03:22:04;;;;;;;34.60;17.80;;;5.90;99.90;;;;;;5054715;28;20025;-76
2021/01/07 03:24:31;;;;;;;54.63;24.65;;;5.80;99.90;;;;;;5054605;28;20083;-76
2021/01/07 03:26:57;;;;;;;53.55;30.17;;;5.80;99.90;;;;;;5054478;28;20024;-76
2021/01/07 03:29:24;;;;;;;87.50;45.22;;;5.80;99.90;;;;;;5054444;28;20044;-76
2021/01/07 03:31:50;;;;;;;125.78;60.58;;;5.80;99.90;;;;;;5054694;28;20025;-76
2021/01/07 03:34:16;;;;;;;86.15;49.15;;;5.80;99.90;;;;;;5054572;28;20036;-76
2021/01/07 03:36:42;;;;;;;84.97;47.83;;;5.80;99.90;;;;;;5036428;28;20021;-76
2021/01/07 03:39:08;;;;;;;99.32;54.65;;;5.80;99.90;;;;;;5054486;28;20025;-76
2021/01/07 03:41:34;;;;;;;97.88;55.90;;;5.70;99.90;;;;;;5054379;28;20029;-76
2021/01/07 03:44:00;;;;;;;86.38;50.53;;;5.70;99.90;;;;;;5054199;28;20032;-76
2021/01/07 03:46:26;;;;;;;72.28;44.78;;;5.60;99.90;;;;;;5054118;28;20025;-76
2021/01/07 03:48:52;;;;;;;75.85;44.78;;;5.70;99.90;;;;;;5054072;28;20082;-76
2021/01/07 03:51:17;;;;;;;70.57;43.97;;;5.60;99.90;;;;;;5053992;28;20468;-76
2021/01/07 03:53:43;;;;;;;66.03;42.60;;;5.60;99.90;;;;;;5054184;28;20056;-76
2021/01/07 03:56:09;;;;;;;66.43;41.67;;;5.60;99.90;;;;;;5053892;28;20033;-76
2021/01/07 03:58:35;;;;;;;60.78;41.08;;;5.60;99.90;;;;;;5054037;28;20108;-76
2021/01/07 04:01:02;;;;;;;63.53;40.38;;;5.60;99.90;;;;;;5054108;28;20025;-76
2021/01/07 04:03:28;;;;;;;63.45;40.28;;;5.60;99.90;;;;;;5053699;28;20104;-76
2021/01/07 04:05:54;;;;;;;69.40;46.00;;;5.60;99.90;;;;;;5053793;28;20162;-76
2021/01/07 04:08:20;;;;;;;75.70;47.97;;;5.50;99.90;;;;;;5053832;28;20048;-76
2021/01/07 04:10:45;;;;;;;76.97;47.20;;;5.50;99.90;;;;;;5053891;28;20017;-76
2021/01/07 04:13:11;;;;;;;79.47;48.63;;;5.50;99.90;;;;;;5053686;28;20017;-76
2021/01/07 04:15:37;;;;;;;89.15;53.78;;;5.50;99.90;;;;;;5053350;28;20029;-76
2021/01/07 04:18:03;;;;;;;82.32;53.60;;;5.50;99.90;;;;;;5053011;28;20028;-76
2021/01/07 04:20:29;;;;;;;93.10;58.42;;;5.40;99.90;;;;;;5053722;28;20028;-76
2021/01/07 04:22:55;;;;;;;103.28;63.05;;;5.40;99.90;;;;;;5053562;28;20037;-76
2021/01/07 04:25:20;;;;;;;88.20;53.20;;;5.40;99.90;;;;;;5053347;28;20032;-76
2021/01/07 04:27:47;;;;;;;81.82;49.70;;;5.30;99.90;;;;;;5053424;28;20502;-76
2021/01/07 04:30:14;;;;;;;69.13;42.20;;;5.30;99.90;;;;;;5053099;28;20045;-76
2021/01/07 04:32:39;;;;;;;45.35;28.88;;;5.30;99.90;;;;;;5053455;28;20365;-76
2021/01/07 04:35:06;;;;;;;52.80;33.80;;;5.30;99.90;;;;;;5053295;28;20028;-76
2021/01/07 04:37:32;;;;;;;218.02;113.50;;;5.20;99.90;;;;;;5053118;28;20027;-76
2021/01/07 04:39:58;;;;;;;340.33;185.27;;;5.20;99.90;;;;;;5053327;28;20468;-76
2021/01/07 04:42:24;;;;;;;352.25;188.57;;;5.10;99.90;;;;;;5053454;28;20025;-76
2021/01/07 04:44:50;;;;;;;307.55;173.50;;;5.10;99.90;;;;;;5035532;28;20029;-76
2021/01/07 04:47:17;;;;;;;273.05;153.02;;;5.10;99.90;;;;;;5053336;28;20392;-76
2021/01/07 04:49:43;;;;;;;282.73;156.98;;;5.10;99.90;;;;;;5053630;28;20052;-77
2021/01/07 04:52:09;;;;;;;275.08;147.70;;;5.10;99.90;;;;;;5053183;28;20017;-76
2021/01/07 04:54:35;;;;;;;261.55;146.13;;;5.10;99.90;;;;;;5053155;28;20025;-76
2021/01/07 04:57:01;;;;;;;257.00;145.85;;;5.10;99.90;;;;;;5035251;28;20029;-76
2021/01/07 04:59:27;;;;;;;269.08;151.50;;;5.10;99.90;;;;;;5052896;28;20061;-76
2021/01/07 05:01:54;;;;;;;257.23;145.38;;;5.00;99.90;;;;;;5053048;28;20071;-76
2021/01/07 05:04:20;;;;;;;256.38;143.45;;;5.00;99.90;;;;;;5052746;28;20033;-77
2021/01/07 05:06:47;;;;;;;238.50;138.93;;;5.00;99.90;;;;;;5053089;28;20098;-76
2021/01/07 05:09:14;;;;;;;242.48;140.00;;;5.00;99.90;;;;;;5052605;28;20104;-76
2021/01/07 05:11:40;;;;;;;242.10;146.00;;;4.90;99.90;;;;;;5052976;28;20040;-77
2021/01/07 05:14:08;;;;;;;237.10;138.13;;;4.90;99.90;;;;;;5035058;28;20029;-77
2021/01/07 05:16:34;;;;;;;210.07;125.57;;;4.80;99.90;;;;;;5052640;28;20021;-76
2021/01/07 05:19:08;;;;;;;215.07;125.13;;;4.80;99.90;;;;;;5052876;28;20707;-76
2021/01/07 05:21:34;;;;;;;209.38;121.93;;;4.90;99.90;;;;;;5052605;28;20040;-76
2021/01/07 05:24:01;;;;;;;215.85;124.43;;;4.90;99.90;;;;;;5052439;28;20029;-76
2021/01/07 05:26:27;;;;;;;218.82;131.40;;;4.90;99.90;;;;;;5052242;28;20084;-76
2021/01/07 05:28:56;;;;;;;179.35;106.53;;;4.90;99.90;;;;;;5052109;28;20040;-76
2021/01/07 05:31:24;;;;;;;216.43;120.72;;;5.00;99.90;;;;;;5052261;28;20033;-76
2021/01/07 05:33:51;;;;;;;234.65;116.53;;;5.00;99.90;;;;;;5051987;28;20108;-76
2021/01/07 05:36:21;;;;;;;184.23;106.88;;;5.10;99.90;;;;;;5052181;28;20029;-76
2021/01/07 05:38:51;;;;;;;;;;;5.10;99.90;;;;;;5052436;28;20384;-76
2021/01/07 05:41:19;;;;;;;184.18;111.80;;;5.10;99.90;;;;;;5051960;28;19908;-76
2021/01/07 05:43:45;;;;;;;185.85;117.07;;;5.00;99.90;;;;;;5051821;28;20029;-76
2021/01/07 05:46:12;;;;;;;184.60;114.88;;;4.90;99.90;;;;;;5051767;28;20468;-76
2021/01/07 05:48:38;;;;;;;192.45;118.78;;;4.90;99.90;;;;;;5033818;28;20389;-76
2021/01/07 05:51:05;;;;;;;195.38;120.65;;;4.90;99.90;;;;;;5051890;28;20028;-76
2021/01/07 05:53:31;;;;;;;198.68;121.75;;;4.80;99.90;;;;;;5051750;28;20044;-76
2021/01/07 05:55:57;;;;;;;205.50;122.85;;;4.80;99.90;;;;;;5051610;28;20051;-76
2021/01/07 05:58:24;;;;;;;193.35;120.20;;;4.80;99.90;;;;;;5051649;28;20488;-76
2021/01/07 06:00:53;;;;;;;189.07;119.43;;;4.70;99.90;;;;;;5051472;28;20028;-76
2021/01/07 06:03:23;;;;;;;201.57;124.45;;;4.70;99.90;;;;;;5051487;28;20102;-76
2021/01/07 06:05:51;;;;;;;218.68;130.50;;;4.70;99.90;;;;;;5051505;28;20020;-76
2021/01/07 06:08:17;;;;;;;272.15;166.18;;;4.70;99.90;;;;;;5033519;28;20024;-76
2021/01/07 06:10:53;;;;;;;307.02;190.60;;;4.60;99.90;;;;;;5051427;28;20050;-76
2021/01/07 06:13:19;;;;;;;424.00;259.63;;;4.50;99.90;;;;;;5051285;28;20025;-76
2021/01/07 06:15:48;;;;;;;447.52;284.58;;;4.50;99.90;;;;;;5051297;28;20021;-76
2021/01/07 06:18:17;;;;;;;461.15;295.70;;;4.50;99.90;;;;;;5051394;28;20029;-76
2021/01/07 06:20:43;;;;;;;402.40;256.47;;;4.60;99.90;;;;;;5051273;28;20027;-76
2021/01/07 06:23:19;;;;;;;405.75;257.92;;;4.60;99.90;;;;;;5051269;28;20258;-76
2021/01/07 06:25:46;;;;;;;352.02;214.80;;;4.50;99.90;;;;;;5050896;28;20415;-76
2021/01/07 06:28:39;;;;;;;339.92;204.30;;;4.50;99.90;;;;;;5051100;28;20017;-76
2021/01/07 06:31:13;;;;;;;308.33;188.98;;;4.60;99.90;;;;;;5048522;28;20056;-76
2021/01/07 06:33:40;;;;;;;266.10;164.90;;;4.70;99.90;;;;;;5051010;28;20576;-75
2021/01/07 06:36:09;;;;;;;232.70;142.27;;;4.80;99.90;;;;;;5050958;28;20131;-75
2021/01/07 06:38:35;;;;;;;178.13;108.38;;;4.80;99.90;;;;;;5050865;28;20036;-75
2021/01/07 06:41:02;;;;;;;158.07;101.65;;;4.80;99.90;;;;;;5050548;28;20087;-76
2021/01/07 06:43:29;;;;;;;172.95;104.43;;;4.80;99.90;;;;;;5050981;28;20432;-76
2021/01/07 06:45:56;;;;;;;161.32;94.97;;;4.80;99.90;;;;;;5051032;28;20036;-76
2021/01/07 06:48:30;;;;;;;133.93;82.20;;;4.80;99.90;;;;;;5033355;28;20051;-76
2021/01/07 06:50:56;;;;;;;107.20;65.97;;;4.80;99.90;;;;;;5051228;28;20029;-76
2021/01/07 06:53:23;;;;;;;108.43;68.38;;;4.90;99.90;;;;;;5050878;28;20021;-76
2021/01/07 06:56:12;;;;;;;116.20;65.65;;;4.90;99.90;;;;;;5051108;28;20021;-76
2021/01/07 06:58:40;;;;;;;100.57;60.78;;;4.90;99.90;;;;;;5050751;28;20376;-76
2021/01/07 07:01:09;;;;;;;89.55;56.78;;;4.90;99.90;;;;;;5033124;28;20032;-76
2021/01/07 07:03:47;;;;;;;97.72;57.83;;;4.90;99.90;;;;;;5051004;28;20032;-76
2021/01/07 07:06:17;;;;;;;78.70;45.33;;;4.90;99.90;;;;;;5050981;28;20072;-76
2021/01/07 07:08:48;;;;;;;65.55;40.95;;;4.90;99.90;;;;;;5032912;28;20029;-76
2021/01/07 07:11:34;;;;;;;69.45;40.22;;;4.90;99.90;;;;;;5050961;28;20036;-77
2021/01/07 07:14:05;;;;;;;69.88;43.63;;;5.00;99.90;;;;;;5050789;28;20052;-77
2021/01/07 07:16:31;;;;;;;;;;;5.00;99.90;;;;;;5051669;28;20021;-76
2021/01/07 07:18:57;;;;;;;113.63;67.30;;;5.00;99.90;;;;;;5051109;28;19939;-76
2021/01/07 07:21:27;;;;;;;126.85;78.57;;;5.00;99.90;;;;;;5050860;28;20128;-76
2021/01/07 07:23:56;;;;;;;126.60;78.27;;;5.00;99.90;;;;;;5032896;28;20037;-76
2021/01/07 07:26:40;;;;;;;108.28;68.65;;;5.00;99.90;;;;;;5049707;28;20079;-76
2021/01/07 07:29:18;;;;;;;100.50;62.20;;;5.00;99.90;;;;;;5031954;28;20048;-76
2021/01/07 07:31:47;;;;;;;102.28;63.78;;;5.00;99.90;;;;;;5050585;28;20412;-76
2021/01/07 07:34:15;;;;;;;113.53;70.78;;;5.00;99.90;;;;;;5050397;28;20094;-77
2021/01/07 07:36:42;;;;;;;105.57;66.15;;;4.90;99.90;;;;;;5050250;28;20021;-76
2021/01/07 07:39:08;;;;;;;110.35;67.57;;;4.90;99.90;;;;;;5050488;28;20063;-77
2021/01/07 07:41:45;;;;;;;114.70;69.35;;;5.00;99.90;;;;;;5050751;28;20021;-77
2021/01/07 07:44:12;;;;;;;76.65;50.50;;;5.00;99.90;;;;;;5050590;28;20052;-76
2021/01/07 07:46:38;;;;;;;68.90;44.90;;;5.00;99.90;;;;;;5050434;28;20029;-77
2021/01/07 07:49:05;;;;;;;74.45;48.17;;;5.10;99.90;;;;;;5051133;28;20075;-78
2021/01/07 07:51:31;;;;;;;85.38;53.78;;;5.20;99.90;;;;;;5033739;28;20032;-77
2021/01/07 07:54:11;;;;;;;91.60;58.83;;;5.20;99.90;;;;;;5053408;28;20021;-76
2021/01/07 07:56:38;;;;;;;103.82;66.32;;;5.30;99.90;;;;;;5053056;28;20029;-77
2021/01/07 07:59:05;;;;;;;142.00;87.35;;;5.40;99.90;;;;;;5053661;28;20388;-76
2021/01/07 08:01:38;;;;;;;110.53;70.70;;;5.40;99.90;;;;;;5053616;28;20025;-77
2021/01/07 08:04:09;;;;;;;83.07;54.47;;;5.60;99.90;;;;;;5053915;28;20107;-76
2021/01/07 08:06:37;;;;;;;93.90;58.05;;;5.60;99.90;;;;;;5053526;28;20068;-76
2021/01/07 08:09:07;;;;;;;78.53;50.78;;;5.60;99.90;;;;;;5053704;28;20416;-76
2021/01/07 08:11:41;;;;;;;168.18;88.28;;;5.70;99.90;;;;;;5053125;28;20044;-76
2021/01/07 08:14:09;;;;;;;173.73;86.97;;;5.80;99.90;;;;;;5063462;28;20053;-76
2021/01/07 08:16:36;;;;;;;121.78;64.00;;;5.90;99.90;;;;;;5069805;28;20033;-76
2021/01/07 08:19:12;;;;;;;105.05;61.38;;;5.90;99.90;;;;;;5073721;28;20027;-76
2021/01/07 08:21:49;;;;;;;124.10;53.60;;;6.00;99.90;;;;;;5073345;28;20032;-76
2021/01/07 08:24:17;;;;;;;110.85;61.58;;;6.10;99.90;;;;;;5073364;28;20028;-76
2021/01/07 08:26:50;;;;;;;88.18;52.22;;;6.30;99.90;;;;;;5064980;28;20480;-76
2021/01/07 08:29:18;;;;;;;78.15;47.42;;;6.40;99.90;;;;;;5048477;28;20049;-76
2021/01/07 08:31:47;;;;;;;76.20;42.00;;;6.50;99.90;;;;;;5052110;28;20033;-74
2021/01/07 08:34:18;;;;;;;70.03;38.90;;;6.60;99.90;;;;;;5052892;28;20025;-76
2021/01/07 08:36:44;;;;;;;72.18;41.28;;;6.80;99.90;;;;;;5052628;28;20079;-76
2021/01/07 08:39:14;;;;;;;67.80;38.05;;;7.00;99.90;;;;;;5053152;28;20379;-76
2021/01/07 08:41:43;;;;;;;59.67;34.47;;;7.10;99.90;;;;;;5052844;28;20036;-76
2021/01/07 08:44:09;;;;;;;41.95;25.00;;;7.20;99.90;;;;;;5052841;28;20029;-76
2021/01/07 08:46:39;;;;;;;42.97;21.95;;;7.30;99.90;;;;;;5052939;28;20032;-75
2021/01/07 08:49:05;;;;;;;34.58;21.83;;;7.50;99.90;;;;;;5052816;28;20071;-76
2021/01/07 08:51:44;;;;;;;36.33;21.92;;;7.50;99.90;;;;;;5052830;28;20419;-76
2021/01/07 08:54:11;;;;;;;31.57;20.23;;;7.60;99.90;;;;;;5051973;28;20071;-76
2021/01/07 08:56:40;;;;;;;25.92;17.33;;;7.60;99.90;;;;;;5052222;28;20041;-76
2021/01/07 08:59:33;;;;;;;25.92;14.88;;;7.70;99.90;;;;;;5050838;28;20029;-76
2021/01/07 09:02:07;;;;;;;20.20;12.93;;;7.80;99.90;;;;;;5051390;28;20025;-76
2021/01/07 09:04:38;;;;;;;23.65;15.18;;;8.00;99.90;;;;;;5052233;28;20567;-76
2021/01/07 09:07:07;;;;;;;33.03;19.45;;;8.10;99.90;;;;;;5052204;28;20158;-76
2021/01/07 09:09:55;;;;;;;36.10;21.48;;;8.20;99.90;;;;;;5050765;28;20032;-76
2021/01/07 09:12:31;;;;;;;28.83;16.88;;;8.40;99.90;;;;;;5052044;28;20358;-76
2021/01/07 09:15:04;;;;;;;25.33;15.73;;;8.40;99.90;;;;;;5052106;28;20053;-76
2021/01/07 09:17:46;;;;;;;24.85;15.75;;;8.60;99.90;;;;;;5052023;28;20036;-76
2021/01/07 09:20:12;;;;;;;24.58;13.80;;;8.70;99.90;;;;;;5051894;28;20024;-76
2021/01/07 09:22:39;;;;;;;17.92;11.63;;;8.90;99.90;;;;;;5051775;28;20021;-76
2021/01/07 09:25:10;;;;;;;24.52;15.68;;;9.00;99.90;;;;;;5051834;28;20021;-76
2021/01/07 09:27:35;;;;;;;31.98;16.45;;;9.10;99.90;;;;;;5051778;28;20029;-77
2021/01/07 09:30:03;;;;;;;23.20;14.63;;;9.20;99.90;;;;;;5062152;28;20102;-76
2021/01/07 09:32:29;;;;;;;16.35;11.20;;;9.30;99.90;;;;;;5071860;28;20407;-76
2021/01/07 09:34:55;;;;;;;13.48;9.02;;;9.40;99.90;;;;;;5072063;28;20031;-76
2021/01/07 09:37:22;;;;;;;21.17;12.63;;;9.50;99.90;;;;;;5071450;28;20033;-76
2021/01/07 09:39:50;;;;;;;53.63;17.00;;;9.60;99.90;;;;;;5071455;28;20025;-76
2021/01/07 09:42:28;;;;;;;20.30;12.18;;;9.70;99.90;;;;;;5071386;28;20554;-77
2021/01/07 09:44:55;;;;;;;16.15;11.38;;;9.80;99.90;;;;;;5071476;28;20116;-77
2021/01/07 09:47:22;;;;;;;28.65;18.48;;;9.90;99.90;;;;;;5071222;28;20048;-77
2021/01/07 09:49:48;;;;;;;31.73;19.88;;;10.10;99.90;;;;;;5071289;28;20024;-77
2021/01/07 09:52:14;;;;;;;22.77;14.82;;;10.10;99.90;;;;;;5071236;28;20036;-77
2021/01/07 09:54:40;;;;;;;25.83;15.15;;;10.20;99.90;;;;;;5053290;28;20029;-76
2021/01/07 09:57:06;;;;;;;29.33;19.65;;;10.20;99.90;;;;;;5071216;28;20093;-77
2021/01/07 09:59:32;;;;;;;23.60;14.00;;;10.30;99.90;;;;;;5071068;28;20495;-77
2021/01/07 10:02:00;;;;;;;58.28;16.95;;;10.40;99.90;;;;;;5071156;28;20036;-76
2021/01/07 10:04:26;;;;;;;33.63;22.15;;;10.30;99.90;;;;;;5071105;28;20024;-76
2021/01/07 10:06:52;;;;;;;20.88;18.17;;;10.60;99.90;;;;;;5071013;28;20021;-76
2021/01/07 10:09:19;;;;;;;17.05;13.95;;;10.60;99.90;;;;;;5071064;28;20054;-76
2021/01/07 10:11:53;;;;;;;13.65;10.50;;;10.70;99.90;;;;;;5070996;28;20476;-76
2021/01/07 10:14:19;;;;;;;12.25;10.38;;;10.70;99.90;;;;;;5052367;28;20036;-76
2021/01/07 10:16:53;;;;;;;10.73;7.38;;;10.70;99.90;;;;;;5070856;28;20103;-76
2021/01/07 10:19:24;;;;;;;21.98;18.60;;;10.70;99.90;;;;;;5070935;28;20033;-76
2021/01/07 10:22:00;;;;;;;22.45;16.95;;;10.80;99.90;;;;;;5070846;28;20047;-76
2021/01/07 10:24:27;;;;;;;15.23;10.05;;;11.00;99.90;;;;;;5070900;28;20043;-76
2021/01/07 10:26:58;;;;;;;34.92;19.80;;;11.10;99.90;;;;;;5052683;28;20024;-76
2021/01/07 10:29:26;;;;;;;24.65;13.95;;;11.00;98.60;;;;;;5070674;28;20044;-76
2021/01/07 10:31:53;;;;;;;19.50;12.98;;;11.10;99.90;;;;;;5070777;28;20024;-76
2021/01/07 10:34:19;;;;;;;24.15;13.90;;;11.20;99.40;;;;;;5070761;28;20097;-76
2021/01/07 10:36:50;;;;;;;31.63;18.85;;;11.20;98.10;;;;;;5070763;28;20029;-76
2021/01/07 10:39:20;;;;;;;21.08;12.82;;;11.20;97.20;;;;;;5052896;28;20339;-76
2021/01/07 10:41:54;;;;;;;16.67;10.38;;;11.30;97.30;;;;;;5070593;28;20162;-76
2021/01/07 10:44:21;;;;;;;13.63;10.05;;;11.40;94.60;;;;;;5070540;28;20024;-76
2021/01/07 10:46:52;;;;;;;22.15;13.80;;;11.50;96.30;;;;;;5070552;28;20027;-76
2021/01/07 10:49:19;;;;;;;;;;;11.60;94.60;;;;;;5070992;28;20464;-76
2021/01/07 10:52:10;;;;;;;20.50;13.50;;;11.60;92.50;;;;;;5070627;28;19912;-76
2021/01/07 10:54:45;;;;;;;13.27;8.82;;;11.60;93.80;;;;;;5070636;28;20349;-75
2021/01/07 10:57:39;;;;;;;12.73;8.73;;;11.60;91.30;;;;;;5070675;28;20021;-75
2021/01/07 11:00:11;;;;;;;10.13;6.47;;;11.70;91.80;;;;;;5070537;28;20021;-75
2021/01/07 11:02:43;;;;;;;13.20;9.60;;;11.60;92.90;;;;;;5070461;28;20032;-75
2021/01/07 11:05:17;;;;;;;21.20;13.30;;;11.50;93.30;;;;;;5070563;28;20064;-75
2021/01/07 11:08:01;;;;;;;37.80;21.08;;;11.40;94.40;;;;;;5052214;28;20025;-75
2021/01/07 11:10:29;;;;;;;20.80;15.57;;;11.30;94.90;;;;;;5070416;28;20027;-75
2021/01/07 11:13:08;;;;;;;32.22;20.45;;;11.20;94.10;;;;;;5070352;28;20079;-75
2021/01/07 11:15:40;;;;;;;30.05;18.45;;;11.10;96.30;;;;;;5070352;28;20027;-75
2021/01/07 11:18:13;;;;;;;21.48;12.10;;;11.10;94.60;;;;;;5070812;28;20107;-75
2021/01/07 11:20:43;;;;;;;22.17;14.38;;;11.20;93.80;;;;;;5070441;28;20192;-75
2021/01/07 11:23:09;;;;;;;19.88;11.85;;;11.30;96.50;;;;;;5070370;28;20017;-75
2021/01/07 11:25:35;;;;;;;16.70;9.93;;;11.60;97.20;;;;;;5071066;28;20028;-75
2021/01/07 11:28:02;;;;;;;28.75;18.25;;;11.90;95.80;;;;;;5073974;28;20017;-75
2021/01/07 11:30:28;;;;;;;18.98;11.55;;;12.10;96.60;;;;;;5073816;28;20114;-75
2021/01/07 11:32:55;;;;;;;18.80;14.10;;;12.10;95.10;;;;;;5073844;28;20028;-75
2021/01/07 11:35:21;;;;;;;18.73;12.45;;;12.10;93.00;;;;;;5073871;28;20517;-75
2021/01/07 11:38:22;;;;;;;20.27;12.45;;;11.80;93.80;;;;;;5074087;28;20024;-75
2021/01/07 11:41:02;;;;;;;13.23;8.00;;;11.70;94.20;;;;;;5073706;28;20052;-75
2021/01/07 11:43:47;;;;;;;15.52;11.00;;;11.80;94.10;;;;;;5055833;28;20055;-75
2021/01/07 11:46:18;;;;;;;21.33;14.32;;;11.90;92.90;;;;;;5073619;28;20110;-76
2021/01/07 11:48:56;;;;;;;16.95;11.38;;;11.90;93.00;;;;;;5073671;28;20048;-76
2021/01/07 11:51:22;;;;;;;12.07;9.27;;;12.10;93.40;;;;;;5073751;28;20498;-76
2021/01/07 11:53:50;;;;;;;24.52;10.80;;;12.10;92.70;;;;;;5073716;28;20028;-76
2021/01/07 11:56:17;;;;;;;97.50;32.13;;;12.00;90.90;;;;;;5073742;28;20415;-76
2021/01/07 11:58:45;;;;;;;51.33;23.42;;;12.00;91.30;;;;;;5073682;28;20028;-76
2021/01/07 12:01:10;;;;;;;50.28;23.05;;;11.90;91.30;;;;;;5073485;28;20088;-75
2021/01/07 12:03:36;;;;;;;89.07;34.15;;;11.90;95.40;;;;;;5073581;28;20483;-75
2021/01/07 12:06:07;;;;;;;55.60;25.98;;;11.70;93.20;;;;;;5073583;28;20544;-76
2021/01/07 12:08:51;;;;;;;54.25;30.73;;;11.70;91.80;;;;;;5073366;28;20526;-76
2021/01/07 12:11:51;;;;;;;19.48;13.55;;;11.80;92.60;;;;;;5073463;28;20046;-75
2021/01/07 12:14:23;;;;;;;20.90;12.38;;;11.90;92.10;;;;;;5070476;28;20040;-75
2021/01/07 12:17:04;;;;;;;50.30;24.33;;;11.90;93.20;;;;;;5073256;28;20025;-76
2021/01/07 12:19:34;;;;;;;50.30;23.63;;;11.70;93.10;;;;;;5073000;28;20488;-76
2021/01/07 12:22:02;;;;;;;46.50;25.92;;;11.70;92.70;;;;;;5073133;28;20039;-76
2021/01/07 12:24:31;;;;;;;24.08;14.73;;;11.60;92.30;;;;;;5072973;28;20042;-76
2021/01/07 12:26:57;;;;;;;10.00;6.85;;;11.60;91.20;;;;;;5054854;28;20024;-75
2021/01/07 12:29:24;;;;;;;11.45;7.68;;;11.60;91.90;;;;;;5072850;28;20032;-76
2021/01/07 12:31:55;;;;;;;34.63;21.20;;;11.80;89.20;;;;;;5072860;28;20020;-76
2021/01/07 12:34:44;;;;;;;23.40;14.60;;;11.60;91.10;;;;;;5072823;28;20055;-76
2021/01/07 12:37:19;;;;;;;21.00;13.02;;;11.60;91.80;;;;;;5072030;28;20395;-75
2021/01/07 12:40:09;;;;;;;21.05;15.35;;;11.60;91.70;;;;;;5054819;28;20020;-76
2021/01/07 12:42:35;;;;;;;27.10;18.42;;;11.50;93.40;;;;;;5072616;28;20024;-76